Time;durP1;ratioP1;P1;durP2;ratioP2;P2;SDS_P1;SDS_P2;PMS_P1;PMS_P2;Temp;Humidity;BMP_temperature;BMP_pressure;BME280_temperature;BME280_humidity;BME280_pressure;Samples;Min_cycle;Max_cycle;Signal;HPM_P1;HPM_P2
2022/08/14 00:01:22;;;;;;;0.38;0.30;;;25.90;56.10;;;;;;5065109;28;20107;-38
2022/08/14 00:03:47;;;;;;;0.30;0.30;;;26.00;56.30;;;;;;5066419;28;20093;-43
2022/08/14 00:06:13;;;;;;;0.20;0.20;;;25.90;56.10;;;;;;5061955;28;20432;-38
2022/08/14 00:08:38;;;;;;;0.50;0.30;;;26.00;56.30;;;;;;5065766;28;20028;-39
2022/08/14 00:11:04;;;;;;;0.25;0.25;;;26.00;56.20;;;;;;5066538;28;20028;-42
2022/08/14 00:13:30;;;;;;;0.20;0.20;;;25.90;56.30;;;;;;5068089;28;20036;-40
2022/08/14 00:15:56;;;;;;;0.10;0.10;;;25.90;56.20;;;;;;5064587;28;20020;-38
2022/08/14 00:18:23;;;;;;;0.20;0.20;;;25.90;56.10;;;;;;5064176;28;20032;-43
2022/08/14 00:20:49;;;;;;;0.25;0.25;;;25.90;56.10;;;;;;5066944;28;20570;-38
2022/08/14 00:23:15;;;;;;;0.30;0.30;;;25.90;56.30;;;;;;5066801;28;20104;-43
2022/08/14 00:25:41;;;;;;;0.30;0.30;;;25.90;56.20;;;;;;5065860;28;20047;-38
2022/08/14 00:28:07;;;;;;;0.30;0.30;;;25.90;56.90;;;;;;5068141;28;20060;-52
2022/08/14 00:30:33;;;;;;;0.38;0.38;;;25.90;56.30;;;;;;5064437;28;20063;-43
2022/08/14 00:32:58;;;;;;;0.22;0.22;;;25.90;56.30;;;;;;5065574;28;20057;-46
2022/08/14 00:35:24;;;;;;;0.43;0.43;;;25.90;56.30;;;;;;5066066;28;20024;-44
2022/08/14 00:37:51;;;;;;;0.30;0.30;;;25.90;56.40;;;;;;5066113;28;20423;-42
2022/08/14 00:40:17;;;;;;;0.40;0.40;;;25.90;56.30;;;;;;5067215;28;20456;-47
2022/08/14 00:42:43;;;;;;;0.38;0.38;;;25.90;56.20;;;;;;5065811;28;20066;-48
2022/08/14 00:45:11;;;;;;;0.30;0.30;;;25.90;56.20;;;;;;5065722;28;20029;-48
2022/08/14 00:47:36;;;;;;;0.30;0.30;;;25.90;56.20;;;;;;5067750;28;20021;-49
2022/08/14 00:50:04;;;;;;;0.30;0.30;;;25.90;56.30;;;;;;5067942;28;20027;-40
2022/08/14 00:52:30;;;;;;;0.30;0.30;;;25.90;56.40;;;;;;5066745;28;20032;-41
2022/08/14 00:54:56;;;;;;;0.32;0.32;;;25.90;56.30;;;;;;5066125;28;20502;-39
2022/08/14 00:57:29;;;;;;;0.32;0.32;;;25.90;56.30;;;;;;5065808;28;20036;-45
2022/08/14 00:59:56;;;;;;;0.20;0.20;;;25.90;56.30;;;;;;5066969;28;20036;-40
2022/08/14 01:02:23;;;;;;;0.30;0.30;;;25.90;56.30;;;;;;5066441;28;20050;-41
2022/08/14 01:04:53;;;;;;;0.40;0.40;;;25.90;55.90;;;;;;5065090;28;20051;-48
2022/08/14 01:07:20;;;;;;;0.30;0.30;;;25.90;56.20;;;;;;5032436;28;20482;-50
2022/08/14 01:09:53;;;;;;;0.50;0.50;;;25.90;56.30;;;;;;5065500;28;20112;-42
2022/08/14 01:12:19;;;;;;;0.30;0.30;;;25.90;56.30;;;;;;5065366;28;20542;-52
2022/08/14 01:14:45;;;;;;;0.30;0.30;;;25.90;56.30;;;;;;5065815;28;20033;-41
2022/08/14 01:17:11;;;;;;;0.40;0.40;;;25.90;56.40;;;;;;5070915;28;20074;-45
2022/08/14 01:22:21;;;;;;;0.20;0.20;;;25.90;56.30;;;;;;5068382;28;20111;-55
2022/08/14 01:24:47;;;;;;;0.30;0.30;;;25.90;56.30;;;;;;5066221;28;20107;-41
2022/08/14 01:27:17;;;;;;;0.30;0.30;;;25.90;56.30;;;;;;5051837;28;20040;-46
2022/08/14 01:29:43;;;;;;;0.30;0.30;;;25.90;56.40;;;;;;5071358;28;20048;-40
2022/08/14 01:32:09;;;;;;;0.30;0.30;;;25.90;56.40;;;;;;5053222;28;20013;-48
2022/08/14 01:34:35;;;;;;;0.30;0.30;;;25.90;56.30;;;;;;5070247;28;20415;-53
2022/08/14 01:37:01;;;;;;;0.20;0.20;;;25.90;56.50;;;;;;5051192;28;20034;-44
2022/08/14 01:39:27;;;;;;;0.20;0.20;;;25.90;56.50;;;;;;5070959;28;20503;-45
2022/08/14 01:41:59;;;;;;;0.30;0.30;;;25.90;56.50;;;;;;5070469;28;20027;-55
2022/08/14 01:44:27;;;;;;;0.20;0.20;;;25.90;56.50;;;;;;5068129;28;20605;-43
2022/08/14 01:46:53;;;;;;;0.30;0.30;;;25.90;56.40;;;;;;5070255;28;20028;-52
2022/08/14 01:49:18;;;;;;;0.30;0.30;;;25.90;56.50;;;;;;5067784;28;20094;-52
2022/08/14 01:51:44;;;;;;;0.30;0.30;;;25.90;56.40;;;;;;5066960;28;20024;-48
2022/08/14 01:54:14;;;;;;;0.38;0.38;;;25.90;56.50;;;;;;5069360;28;20028;-44
2022/08/14 01:56:43;;;;;;;0.30;0.30;;;25.90;56.50;;;;;;5052934;28;20029;-50
2022/08/14 01:59:14;;;;;;;0.30;0.30;;;25.90;57.20;;;;;;5069084;28;20047;-40
2022/08/14 02:01:42;;;;;;;0.30;0.30;;;25.90;56.50;;;;;;5069448;28;20020;-44
2022/08/14 02:04:07;;;;;;;0.40;0.40;;;25.90;56.50;;;;;;5069092;28;20579;-38
2022/08/14 02:06:33;;;;;;;0.22;0.22;;;25.90;56.50;;;;;;5068096;28;20552;-42
2022/08/14 02:09:01;;;;;;;0.38;0.38;;;25.90;56.60;;;;;;5051119;28;20090;-44
2022/08/14 02:11:26;;;;;;;0.30;0.30;;;25.90;56.60;;;;;;5070440;28;20029;-51
2022/08/14 02:14:08;;;;;;;0.30;0.30;;;25.90;56.60;;;;;;5067769;28;20499;-39
2022/08/14 02:16:37;;;;;;;0.38;0.38;;;25.90;56.60;;;;;;5068873;28;20025;-44
2022/08/14 02:19:06;;;;;;;0.30;0.30;;;25.90;56.60;;;;;;5067836;28;20020;-45
2022/08/14 02:21:32;;;;;;;1.33;0.40;;;25.90;56.70;;;;;;5067141;28;20064;-37
2022/08/14 02:24:00;;;;;;;0.40;0.40;;;25.90;56.60;;;;;;5067861;28;20089;-38
2022/08/14 02:26:27;;;;;;;0.40;0.40;;;25.90;56.50;;;;;;5067454;28;20044;-37
2022/08/14 02:28:55;;;;;;;0.25;0.25;;;25.90;56.60;;;;;;5065598;28;20098;-38
2022/08/14 02:31:20;;;;;;;0.32;0.32;;;25.90;56.60;;;;;;5067877;28;20020;-38
2022/08/14 02:33:46;;;;;;;0.45;0.45;;;25.90;56.60;;;;;;5066887;28;20135;-42
2022/08/14 02:36:12;;;;;;;0.30;0.30;;;25.90;56.60;;;;;;5065294;28;20020;-39
2022/08/14 02:38:39;;;;;;;0.30;0.30;;;25.90;56.60;;;;;;5065273;28;20572;-37
2022/08/14 02:41:07;;;;;;;0.38;0.35;;;25.80;56.60;;;;;;5066170;28;20025;-38
2022/08/14 02:43:33;;;;;;;0.30;0.30;;;25.90;56.70;;;;;;5067478;28;20051;-46
2022/08/14 02:45:59;;;;;;;0.32;0.32;;;25.80;56.60;;;;;;5067331;28;20391;-48
2022/08/14 02:48:30;;;;;;;0.30;0.30;;;25.90;56.70;;;;;;5062630;28;20510;-39
2022/08/14 02:50:57;;;;;;;0.40;0.40;;;25.80;56.70;;;;;;5069193;28;20159;-39
2022/08/14 02:53:22;;;;;;;0.35;0.35;;;25.80;56.60;;;;;;5068041;28;20103;-38
2022/08/14 02:55:48;;;;;;;0.40;0.40;;;25.90;56.70;;;;;;5066832;28;20115;-41
2022/08/14 02:58:13;;;;;;;0.30;0.30;;;25.90;56.70;;;;;;5067213;28;20498;-51
2022/08/14 03:00:39;;;;;;;0.35;0.35;;;25.90;56.60;;;;;;5051933;28;20024;-60
2022/08/14 03:03:04;;;;;;;0.30;0.30;;;25.80;56.60;;;;;;5051547;28;20530;-46
2022/08/14 03:05:30;;;;;;;0.47;0.47;;;25.80;56.60;;;;;;5068908;28;20021;-40
2022/08/14 03:08:12;;;;;;;0.30;0.30;;;25.80;56.60;;;;;;5067137;28;20509;-41
2022/08/14 03:10:38;;;;;;;0.32;0.32;;;25.80;57.30;;;;;;5065508;28;21135;-55
2022/08/14 03:13:05;;;;;;;0.40;0.40;;;25.80;56.60;;;;;;5066824;28;20034;-49
2022/08/14 03:15:38;;;;;;;0.50;0.43;;;25.80;56.70;;;;;;5065038;28;20020;-50
2022/08/14 03:18:08;;;;;;;0.30;0.30;;;25.90;56.70;;;;;;5067876;28;20028;-47
2022/08/14 03:20:34;;;;;;;0.52;0.52;;;25.80;56.60;;;;;;5068083;28;20044;-44
2022/08/14 03:23:01;;;;;;;0.45;0.45;;;25.90;56.70;;;;;;5067986;28;20025;-43
2022/08/14 03:25:30;;;;;;;0.35;0.35;;;25.80;57.00;;;;;;5067630;28;20036;-49
2022/08/14 03:27:55;;;;;;;0.47;0.47;;;25.80;57.30;;;;;;5067709;28;20032;-38
2022/08/14 03:30:21;;;;;;;0.40;0.40;;;25.80;56.60;;;;;;5066677;28;20600;-39
2022/08/14 03:32:47;;;;;;;0.30;0.30;;;25.80;56.70;;;;;;5067650;28;20082;-43
2022/08/14 03:35:12;;;;;;;0.50;0.50;;;25.80;56.70;;;;;;5067101;28;20020;-41
2022/08/14 03:37:38;;;;;;;0.50;0.50;;;25.80;56.70;;;;;;5067672;28;20051;-37
2022/08/14 03:40:05;;;;;;;0.40;0.40;;;25.80;56.70;;;;;;5066318;28;20060;-38
2022/08/14 03:42:31;;;;;;;0.43;0.43;;;25.80;56.70;;;;;;5065958;28;20085;-41
2022/08/14 03:44:57;;;;;;;0.40;0.40;;;25.80;56.70;;;;;;5065785;28;20032;-40
2022/08/14 03:47:23;;;;;;;1.00;0.40;;;25.80;56.70;;;;;;5066353;28;20540;-44
2022/08/14 03:49:49;;;;;;;0.40;0.40;;;25.80;56.70;;;;;;5064982;28;20021;-40
2022/08/14 03:52:15;;;;;;;0.40;0.40;;;25.80;57.30;;;;;;5066809;28;20512;-42
2022/08/14 03:54:40;;;;;;;0.50;0.50;;;25.80;56.70;;;;;;5067898;28;20028;-37
2022/08/14 03:57:07;;;;;;;0.45;0.45;;;25.80;56.60;;;;;;5066717;28;20072;-41
2022/08/14 03:59:33;;;;;;;0.40;0.40;;;25.80;56.70;;;;;;5064936;28;20037;-38
2022/08/14 04:01:59;;;;;;;0.50;0.50;;;25.80;56.70;;;;;;5064339;28;20059;-37
2022/08/14 04:04:25;;;;;;;0.50;0.50;;;25.80;56.70;;;;;;5064326;28;20015;-37
2022/08/14 04:06:50;;;;;;;0.40;0.40;;;25.80;56.70;;;;;;5064992;28;20025;-38
2022/08/14 04:09:16;;;;;;;0.57;0.57;;;25.80;56.60;;;;;;5068723;28;20036;-38
2022/08/14 04:11:42;;;;;;;0.50;0.50;;;25.80;56.70;;;;;;5066809;28;20402;-38
2022/08/14 04:14:08;;;;;;;0.47;0.47;;;25.80;56.70;;;;;;5063924;28;20112;-37
2022/08/14 04:16:33;;;;;;;0.50;0.50;;;25.80;56.70;;;;;;5067854;28;20103;-38
2022/08/14 04:19:00;;;;;;;0.40;0.40;;;25.80;56.70;;;;;;5065044;28;20451;-38
2022/08/14 04:21:28;;;;;;;0.30;0.30;;;25.80;56.70;;;;;;5063948;28;20131;-38
2022/08/14 04:23:56;;;;;;;0.40;0.40;;;25.80;56.70;;;;;;5066604;28;20032;-44
2022/08/14 04:26:22;;;;;;;0.40;0.40;;;25.80;56.70;;;;;;5067237;28;20024;-38
2022/08/14 04:28:48;;;;;;;0.88;0.88;;;25.80;56.70;;;;;;5064875;28;20039;-39
2022/08/14 04:31:14;;;;;;;0.47;0.35;;;25.80;56.70;;;;;;5065651;28;20021;-42
2022/08/14 04:33:40;;;;;;;0.52;0.52;;;25.80;56.70;;;;;;5066011;28;20021;-42
2022/08/14 04:36:06;;;;;;;0.40;0.40;;;25.80;56.70;;;;;;5065972;28;20023;-37
2022/08/14 04:43:59;;;;;;;;;;;25.80;56.70;;;;;;5066635;28;20032;-52
2022/08/14 04:46:27;;;;;;;0.30;0.30;;;25.80;56.70;;;;;;5066237;28;19916;-52
2022/08/14 04:48:53;;;;;;;0.50;0.50;;;25.80;56.70;;;;;;5065767;28;20453;-58
2022/08/14 04:51:20;;;;;;;0.35;0.35;;;25.80;56.60;;;;;;5066530;28;20021;-51
2022/08/14 04:53:47;;;;;;;0.47;0.47;;;25.80;56.70;;;;;;5065516;28;20049;-41
2022/08/14 04:56:14;;;;;;;0.40;0.40;;;25.80;57.40;;;;;;5065800;28;20146;-41
2022/08/14 04:58:41;;;;;;;0.50;0.50;;;25.80;56.80;;;;;;5066154;28;20036;-38
2022/08/14 05:01:07;;;;;;;0.50;0.50;;;25.80;56.80;;;;;;5066043;28;20392;-38
2022/08/14 05:03:34;;;;;;;0.60;0.60;;;25.80;56.80;;;;;;5065587;28;20028;-37
2022/08/14 05:06:01;;;;;;;0.50;0.50;;;25.80;56.80;;;;;;5065314;28;20020;-37
2022/08/14 05:08:28;;;;;;;0.50;0.50;;;25.80;56.80;;;;;;5064276;28;20033;-41
2022/08/14 05:10:55;;;;;;;0.50;0.50;;;25.80;56.80;;;;;;5065648;28;20025;-40
2022/08/14 05:13:22;;;;;;;0.40;0.40;;;25.80;56.90;;;;;;5064340;28;20483;-42
2022/08/14 05:15:48;;;;;;;0.40;0.40;;;25.80;56.80;;;;;;5062726;28;20483;-38
2022/08/14 05:18:15;;;;;;;0.50;0.50;;;25.80;56.80;;;;;;5066909;28;20118;-43
2022/08/14 05:20:42;;;;;;;0.50;0.50;;;25.80;56.80;;;;;;5048240;28;20036;-46
2022/08/14 05:23:09;;;;;;;0.60;0.60;;;25.70;56.80;;;;;;5063047;28;20025;-45
2022/08/14 05:25:35;;;;;;;0.50;0.50;;;25.80;56.80;;;;;;5063975;28;20024;-38
2022/08/14 05:28:11;;;;;;;0.40;0.40;;;25.80;56.80;;;;;;5066787;28;20037;-37
2022/08/14 05:30:37;;;;;;;0.40;0.40;;;25.70;56.90;;;;;;5066061;28;23424;-47
2022/08/14 05:33:04;;;;;;;0.57;0.57;;;25.70;56.90;;;;;;5065110;28;20029;-46
2022/08/14 05:35:31;;;;;;;0.35;0.35;;;25.70;56.90;;;;;;5067071;28;20051;-37
2022/08/14 05:37:58;;;;;;;0.65;0.65;;;25.70;56.90;;;;;;5064323;28;20083;-41
2022/08/14 05:40:24;;;;;;;0.45;0.45;;;25.80;56.90;;;;;;5065536;28;20509;-42
2022/08/14 05:42:49;;;;;;;0.47;0.47;;;25.70;56.90;;;;;;5065347;28;20099;-42
2022/08/14 05:45:16;;;;;;;0.40;0.40;;;25.70;56.90;;;;;;5064099;28;20028;-48
2022/08/14 05:47:41;;;;;;;0.40;0.40;;;25.70;56.90;;;;;;5064245;28;20032;-42
2022/08/14 05:50:12;;;;;;;0.35;0.35;;;25.70;56.90;;;;;;5065807;28;20035;-41
2022/08/14 05:52:37;;;;;;;0.45;0.45;;;25.70;56.80;;;;;;5061741;28;20020;-40
2022/08/14 05:55:04;;;;;;;0.40;0.40;;;25.70;56.90;;;;;;5067103;28;20376;-42
2022/08/14 05:57:29;;;;;;;0.47;0.47;;;25.70;56.80;;;;;;5065787;28;20567;-43
2022/08/14 05:59:55;;;;;;;0.43;0.43;;;25.70;56.80;;;;;;5067342;28;20025;-50
2022/08/14 06:02:21;;;;;;;0.50;0.50;;;25.70;56.90;;;;;;5065902;28;20102;-42
2022/08/14 06:04:47;;;;;;;0.60;0.60;;;25.80;56.90;;;;;;5069827;28;20062;-41
2022/08/14 06:07:13;;;;;;;0.45;0.45;;;25.70;56.90;;;;;;5067281;28;20080;-51
2022/08/14 06:09:39;;;;;;;0.43;0.43;;;25.70;56.80;;;;;;5068045;28;20102;-51
2022/08/14 06:12:06;;;;;;;0.60;0.60;;;25.70;56.80;;;;;;5068118;28;20433;-56
2022/08/14 06:14:31;;;;;;;0.40;0.40;;;25.70;56.80;;;;;;5066662;28;20498;-38
2022/08/14 06:16:57;;;;;;;0.60;0.60;;;25.70;56.80;;;;;;5066998;28;20028;-57
2022/08/14 06:19:22;;;;;;;0.45;0.45;;;25.70;56.80;;;;;;5069679;28;20499;-53
2022/08/14 06:21:48;;;;;;;0.60;0.60;;;25.70;56.90;;;;;;5066769;28;20028;-45
2022/08/14 06:24:13;;;;;;;0.50;0.50;;;25.70;56.90;;;;;;5069155;28;20035;-44
2022/08/14 06:26:39;;;;;;;0.65;0.65;;;25.70;56.80;;;;;;5070411;28;20056;-37
2022/08/14 06:29:05;;;;;;;0.70;0.70;;;25.60;56.80;;;;;;5067986;28;20040;-37
2022/08/14 06:31:30;;;;;;;0.57;0.57;;;25.70;56.90;;;;;;5068268;28;20055;-37
2022/08/14 06:33:56;;;;;;;0.60;0.60;;;25.70;56.80;;;;;;5053112;28;20494;-37
2022/08/14 06:36:21;;;;;;;0.50;0.50;;;25.70;56.90;;;;;;5068800;28;20021;-37
2022/08/14 06:38:47;;;;;;;0.60;0.60;;;25.70;56.80;;;;;;5068595;28;20033;-37
2022/08/14 06:41:12;;;;;;;0.70;0.70;;;25.70;56.80;;;;;;5069128;28;20449;-37
2022/08/14 06:43:38;;;;;;;0.80;0.80;;;25.70;56.80;;;;;;5067648;28;20028;-41
2022/08/14 06:46:04;;;;;;;0.60;0.60;;;25.70;56.90;;;;;;5067590;28;20032;-37
2022/08/14 06:48:30;;;;;;;0.50;0.50;;;25.70;56.90;;;;;;5068581;28;20032;-37
2022/08/14 06:50:55;;;;;;;0.70;0.70;;;25.70;56.90;;;;;;5069750;28;20021;-37
2022/08/14 06:53:21;;;;;;;0.68;0.68;;;25.60;56.80;;;;;;5063390;28;20086;-37
2022/08/14 06:55:47;;;;;;;0.68;0.68;;;25.60;56.80;;;;;;5068432;28;20109;-37
2022/08/14 06:58:13;;;;;;;0.60;0.60;;;25.70;56.90;;;;;;5064773;28;20047;-37
2022/08/14 07:00:39;;;;;;;0.88;0.88;;;25.60;56.80;;;;;;5068499;28;20036;-37
2022/08/14 07:05:49;;;;;;;0.50;0.50;;;25.60;57.50;;;;;;5066470;28;20041;-37
2022/08/14 07:08:17;;;;;;;0.60;0.60;;;25.60;56.90;;;;;;5066157;28;20029;-37
2022/08/14 07:10:50;;;;;;;0.60;0.60;;;25.70;56.90;;;;;;5066162;28;20024;-38
2022/08/14 07:13:19;;;;;;;0.70;0.70;;;25.60;56.80;;;;;;5066134;28;20096;-46
2022/08/14 07:15:49;;;;;;;0.70;0.70;;;25.60;56.90;;;;;;5067027;28;20403;-47
2022/08/14 07:18:28;;;;;;;1.08;1.08;;;25.60;56.90;;;;;;5068069;28;20041;-37
2022/08/14 07:20:54;;;;;;;0.70;0.70;;;25.60;56.90;;;;;;5066670;28;20620;-45
2022/08/14 07:23:22;;;;;;;0.75;0.75;;;25.60;56.90;;;;;;5066459;28;20020;-37
2022/08/14 07:25:48;;;;;;;1.00;1.00;;;25.60;57.00;;;;;;5068040;28;20033;-53
2022/08/14 07:28:15;;;;;;;0.82;0.82;;;25.60;56.90;;;;;;5051946;28;20028;-38
2022/08/14 07:30:41;;;;;;;0.60;0.60;;;25.60;56.90;;;;;;5067012;28;20017;-40
2022/08/14 07:33:06;;;;;;;0.70;0.70;;;25.60;56.90;;;;;;5068344;28;20390;-43
2022/08/14 07:35:33;;;;;;;0.70;0.70;;;25.60;56.90;;;;;;5065524;28;20021;-38
2022/08/14 07:37:58;;;;;;;0.65;0.65;;;25.60;57.00;;;;;;5067653;28;20514;-50
2022/08/14 07:40:24;;;;;;;0.60;0.60;;;25.60;56.90;;;;;;5065405;28;20047;-46
2022/08/14 07:42:49;;;;;;;0.60;0.60;;;25.60;57.00;;;;;;5067495;28;20032;-38
2022/08/14 07:45:15;;;;;;;0.80;0.80;;;25.60;57.00;;;;;;5067211;28;20032;-38
2022/08/14 07:47:41;;;;;;;0.60;0.60;;;25.60;57.10;;;;;;5068542;28;20035;-37
2022/08/14 07:50:11;;;;;;;0.50;0.50;;;25.60;56.90;;;;;;5066460;28;20025;-37
2022/08/14 07:52:37;;;;;;;0.60;0.60;;;25.60;57.00;;;;;;5063995;28;20013;-38
2022/08/14 07:55:03;;;;;;;0.50;0.50;;;25.50;57.00;;;;;;5067636;28;20436;-37
2022/08/14 07:57:29;;;;;;;0.52;0.52;;;25.60;57.00;;;;;;5048847;28;20489;-38
2022/08/14 07:59:54;;;;;;;0.60;0.60;;;25.60;57.10;;;;;;5067218;28;20020;-37
2022/08/14 08:02:20;;;;;;;0.52;0.52;;;25.60;57.00;;;;;;5049396;28;20096;-40
2022/08/14 08:04:53;;;;;;;0.70;0.70;;;25.60;57.00;;;;;;5049756;28;20028;-38
2022/08/14 08:07:19;;;;;;;0.55;0.55;;;25.60;57.00;;;;;;5066930;28;20012;-41
2022/08/14 08:09:49;;;;;;;0.70;0.70;;;25.60;57.10;;;;;;5066366;28;20483;-38
2022/08/14 08:12:16;;;;;;;0.82;0.82;;;25.50;57.00;;;;;;5067157;28;20056;-38
2022/08/14 08:14:44;;;;;;;0.65;0.65;;;25.50;57.10;;;;;;5050969;28;20041;-38
2022/08/14 08:17:10;;;;;;;1.00;0.70;;;25.60;57.10;;;;;;5063969;28;20047;-38
2022/08/14 08:19:37;;;;;;;0.50;0.50;;;25.50;57.00;;;;;;5066458;28;20648;-40
2022/08/14 08:22:02;;;;;;;0.50;0.50;;;25.50;57.10;;;;;;5067561;28;20027;-38
2022/08/14 08:24:28;;;;;;;0.70;0.70;;;25.50;57.00;;;;;;5067515;28;20029;-38
2022/08/14 08:26:54;;;;;;;0.50;0.50;;;25.60;57.10;;;;;;5063662;28;20020;-37
2022/08/14 08:29:21;;;;;;;0.50;0.50;;;25.50;57.00;;;;;;5064089;28;20040;-39
2022/08/14 08:31:50;;;;;;;0.65;0.65;;;25.50;57.00;;;;;;5065214;28;20024;-38
2022/08/14 08:34:19;;;;;;;0.60;0.60;;;25.50;57.00;;;;;;5066301;28;20028;-38
2022/08/14 08:36:45;;;;;;;0.60;0.60;;;25.50;57.00;;;;;;5064760;28;20567;-38
2022/08/14 08:39:11;;;;;;;0.90;0.90;;;25.50;57.00;;;;;;5064698;28;20115;-37
2022/08/14 08:41:40;;;;;;;0.73;0.73;;;25.50;57.00;;;;;;5066686;28;20410;-38
2022/08/14 08:44:06;;;;;;;0.60;0.60;;;25.50;57.00;;;;;;5066733;28;20499;-38
2022/08/14 08:46:32;;;;;;;0.70;0.70;;;25.50;57.10;;;;;;5066125;28;20020;-37
2022/08/14 08:48:57;;;;;;;0.60;0.60;;;25.50;57.10;;;;;;5065889;28;20060;-40
2022/08/14 08:51:30;;;;;;;0.60;0.60;;;25.50;57.00;;;;;;5066860;28;20055;-38
2022/08/14 08:54:13;;;;;;;0.40;0.40;;;25.50;57.10;;;;;;5049466;28;20031;-46
2022/08/14 08:56:44;;;;;;;0.50;0.50;;;25.50;57.10;;;;;;5065049;28;20028;-43
2022/08/14 08:59:30;;;;;;;0.60;0.60;;;25.50;57.10;;;;;;5064518;28;20032;-48
2022/08/14 09:01:58;;;;;;;0.50;0.50;;;25.50;57.10;;;;;;5064201;28;20060;-47
2022/08/14 09:04:25;;;;;;;0.55;0.55;;;25.50;57.10;;;;;;5065215;28;20021;-38
2022/08/14 09:06:51;;;;;;;0.60;0.60;;;25.50;57.10;;;;;;5065439;28;20033;-42
2022/08/14 09:09:27;;;;;;;0.50;0.50;;;25.50;57.20;;;;;;5064816;28;20078;-41
2022/08/14 09:11:54;;;;;;;0.57;0.57;;;25.50;57.10;;;;;;5066522;28;20024;-38
2022/08/14 09:14:21;;;;;;;0.50;0.50;;;25.50;57.10;;;;;;5064528;28;20057;-37
2022/08/14 09:16:46;;;;;;;0.80;0.80;;;25.50;57.70;;;;;;5065091;28;20032;-38
2022/08/14 09:19:12;;;;;;;0.50;0.50;;;25.50;57.20;;;;;;5066644;28;20058;-38
2022/08/14 09:21:38;;;;;;;0.60;0.60;;;25.50;57.10;;;;;;5066948;28;20494;-37
2022/08/14 09:24:05;;;;;;;0.60;0.60;;;25.50;57.10;;;;;;5064332;28;20028;-38
2022/08/14 09:26:30;;;;;;;0.60;0.60;;;25.40;57.00;;;;;;5064753;28;20541;-42
2022/08/14 09:28:56;;;;;;;0.60;0.60;;;25.50;57.10;;;;;;5063754;28;20029;-38
2022/08/14 09:31:21;;;;;;;0.60;0.60;;;25.50;57.20;;;;;;5048568;28;20529;-38
2022/08/14 09:34:45;;;;;;;0.40;0.40;;;25.40;57.10;;;;;;5047014;28;20119;-38
2022/08/14 09:37:30;;;;;;;0.52;0.52;;;25.50;57.30;;;;;;4985789;28;20038;-37
2022/08/14 09:39:59;;;;;;;0.60;0.60;;;25.40;57.00;;;;;;4972995;28;20441;-38
2022/08/14 09:42:30;;;;;;;0.50;0.50;;;25.50;57.20;;;;;;4993057;28;20520;-38
2022/08/14 09:45:04;;;;;;;0.60;0.60;;;25.50;57.20;;;;;;4992538;28;20097;-43
2022/08/14 09:47:58;;;;;;;0.60;0.60;;;25.50;57.20;;;;;;4990333;28;20042;-38
2022/08/14 09:50:44;;;;;;;0.63;0.63;;;25.50;57.20;;;;;;4973169;28;20604;-39
2022/08/14 09:53:11;;;;;;;0.35;0.35;;;25.40;57.00;;;;;;4989418;28;20485;-41
2022/08/14 09:55:37;;;;;;;0.40;0.40;;;25.40;57.20;;;;;;4991430;28;20031;-38
2022/08/14 09:58:16;;;;;;;0.50;0.50;;;25.40;57.10;;;;;;4991605;28;20022;-37
2022/08/14 10:00:53;;;;;;;0.60;0.60;;;25.50;57.20;;;;;;4992776;28;20108;-39
2022/08/14 10:03:35;;;;;;;0.57;0.57;;;25.40;57.20;;;;;;4989927;28;20030;-37
2022/08/14 10:06:17;;;;;;;0.60;0.60;;;25.40;57.20;;;;;;4990131;28;20460;-38
2022/08/14 10:08:50;;;;;;;0.50;0.50;;;25.40;57.20;;;;;;4988739;28;20500;-38
2022/08/14 10:11:28;;;;;;;0.50;0.50;;;25.40;57.20;;;;;;4990370;28;20422;-40
2022/08/14 10:13:56;;;;;;;0.73;0.73;;;25.40;57.20;;;;;;5038614;28;20035;-42
2022/08/14 10:16:24;;;;;;;0.50;0.50;;;25.40;57.10;;;;;;5068760;28;20020;-39
2022/08/14 10:19:01;;;;;;;0.60;0.60;;;25.40;57.10;;;;;;5068661;28;20081;-37
2022/08/14 10:21:26;;;;;;;0.70;0.70;;;25.40;57.20;;;;;;5066589;28;20032;-43
2022/08/14 10:23:52;;;;;;;0.70;0.70;;;25.40;57.20;;;;;;5067641;28;20032;-42
2022/08/14 10:26:18;;;;;;;0.60;0.60;;;25.40;57.20;;;;;;5067199;28;20460;-38
2022/08/14 10:28:49;;;;;;;0.60;0.60;;;25.40;57.20;;;;;;5070546;28;20032;-48
2022/08/14 10:31:18;;;;;;;0.55;0.55;;;25.40;57.20;;;;;;5067993;28;20020;-51
2022/08/14 10:33:45;;;;;;;0.50;0.50;;;25.40;57.20;;;;;;5066602;28;20020;-39
2022/08/14 10:36:10;;;;;;;0.50;0.50;;;25.40;57.20;;;;;;5069360;28;20024;-38
2022/08/14 10:38:36;;;;;;;0.57;0.57;;;25.40;57.20;;;;;;5067752;28;20519;-38
2022/08/14 10:41:12;;;;;;;0.50;0.50;;;25.40;57.20;;;;;;5068172;28;20540;-47
2022/08/14 10:43:39;;;;;;;0.60;0.60;;;25.40;57.20;;;;;;5067264;28;20028;-42
2022/08/14 10:46:14;;;;;;;0.52;0.52;;;25.40;57.20;;;;;;5068494;28;20021;-37
2022/08/14 10:48:39;;;;;;;0.57;0.57;;;25.40;57.20;;;;;;5064643;28;20044;-38
2022/08/14 10:51:05;;;;;;;0.70;0.70;;;25.40;57.20;;;;;;5066820;28;20095;-39
2022/08/14 10:53:31;;;;;;;0.50;0.50;;;25.40;57.20;;;;;;5050952;28;20032;-37
2022/08/14 10:56:02;;;;;;;0.57;0.57;;;25.40;57.20;;;;;;5068476;28;20067;-42
2022/08/14 10:58:29;;;;;;;0.60;0.60;;;25.40;57.10;;;;;;5068342;28;20013;-38
2022/08/14 11:00:59;;;;;;;0.50;0.50;;;25.40;57.20;;;;;;5065185;28;20479;-38
2022/08/14 11:03:35;;;;;;;0.63;0.60;;;25.40;57.20;;;;;;5066669;28;20055;-37
2022/08/14 11:06:13;;;;;;;0.60;0.60;;;25.40;57.10;;;;;;5051622;28;20050;-38
2022/08/14 11:08:38;;;;;;;0.50;0.50;;;25.40;57.20;;;;;;5067696;28;20123;-40
2022/08/14 11:11:05;;;;;;;0.80;0.80;;;25.40;57.20;;;;;;5068726;28;20095;-38
2022/08/14 11:13:31;;;;;;;0.60;0.60;;;25.40;57.20;;;;;;5064528;28;20037;-37
2022/08/14 11:16:01;;;;;;;0.68;0.68;;;25.40;57.20;;;;;;5068681;28;20017;-37
2022/08/14 11:18:28;;;;;;;0.57;0.57;;;25.40;57.80;;;;;;5067613;28;20490;-37
2022/08/14 11:20:55;;;;;;;0.50;0.50;;;25.40;57.20;;;;;;5069271;28;20037;-38
2022/08/14 11:23:31;;;;;;;0.60;0.60;;;25.40;57.20;;;;;;5063285;28;20028;-37
2022/08/14 11:25:57;;;;;;;0.47;0.47;;;25.40;57.20;;;;;;5065533;28;20062;-37
2022/08/14 11:28:26;;;;;;;0.57;0.57;;;25.40;57.20;;;;;;5051450;28;20039;-37
2022/08/14 11:30:52;;;;;;;0.50;0.50;;;25.40;57.20;;;;;;5066110;28;20027;-38
2022/08/14 11:33:23;;;;;;;0.55;0.55;;;25.40;57.20;;;;;;5067323;28;20032;-37
2022/08/14 11:35:48;;;;;;;0.50;0.50;;;25.40;57.30;;;;;;5066977;28;20020;-38
2022/08/14 11:38:14;;;;;;;0.60;0.60;;;25.40;57.20;;;;;;5066714;28;20067;-37
2022/08/14 11:40:41;;;;;;;0.60;0.60;;;25.40;57.40;;;;;;5068274;28;20050;-38
2022/08/14 11:43:08;;;;;;;0.50;0.50;;;25.40;57.30;;;;;;5051147;28;20418;-38
2022/08/14 11:45:35;;;;;;;0.82;0.82;;;25.40;57.30;;;;;;5050291;28;20073;-37
2022/08/14 11:48:12;;;;;;;0.60;0.60;;;25.40;57.20;;;;;;5067079;28;20024;-37
2022/08/14 11:50:38;;;;;;;0.50;0.50;;;25.40;57.30;;;;;;5051034;28;20491;-39
2022/08/14 11:53:04;;;;;;;0.60;0.60;;;25.40;57.40;;;;;;5065606;28;20029;-40
2022/08/14 11:55:34;;;;;;;0.50;0.50;;;25.40;57.40;;;;;;5067634;28;20020;-39
2022/08/14 11:58:03;;;;;;;0.57;0.57;;;25.40;57.30;;;;;;5064528;28;20021;-53
2022/08/14 12:00:29;;;;;;;0.60;0.60;;;25.40;57.40;;;;;;5067121;28;20029;-38
2022/08/14 12:02:59;;;;;;;0.60;0.60;;;25.40;57.40;;;;;;5068002;28;20032;-49
2022/08/14 12:05:33;;;;;;;0.52;0.52;;;25.40;58.00;;;;;;5065534;28;20077;-39
2022/08/14 12:07:59;;;;;;;0.50;0.50;;;25.40;57.40;;;;;;5064740;28;20035;-43
2022/08/14 12:10:25;;;;;;;0.60;0.60;;;25.40;57.50;;;;;;5065909;28;20126;-46
2022/08/14 12:12:53;;;;;;;0.60;0.60;;;25.40;57.50;;;;;;5067185;28;20046;-38
2022/08/14 12:15:28;;;;;;;0.60;0.60;;;25.40;57.40;;;;;;5063349;28;20048;-43
2022/08/14 12:17:54;;;;;;;0.65;0.65;;;25.40;57.50;;;;;;5066533;28;20012;-38
2022/08/14 12:20:28;;;;;;;0.70;0.70;;;25.40;57.50;;;;;;5066093;28;20105;-38
2022/08/14 12:22:53;;;;;;;;;;;25.40;57.50;;;;;;5067782;28;20495;-39
2022/08/14 12:25:20;;;;;;;0.50;0.50;;;25.40;57.60;;;;;;5049846;28;19905;-40
2022/08/14 12:27:50;;;;;;;0.70;0.70;;;25.40;57.50;;;;;;5064823;28;20036;-38
2022/08/14 12:30:25;;;;;;;0.55;0.55;;;25.40;57.50;;;;;;5065514;28;20387;-39
2022/08/14 12:32:51;;;;;;;0.47;0.47;;;25.40;57.60;;;;;;5067198;28;20027;-55
2022/08/14 12:35:16;;;;;;;0.60;0.60;;;25.40;57.50;;;;;;5065957;28;20424;-41
2022/08/14 12:37:49;;;;;;;0.52;0.52;;;25.40;57.60;;;;;;5048947;28;20024;-38
2022/08/14 12:40:15;;;;;;;0.60;0.60;;;25.40;57.60;;;;;;5067124;28;20123;-38
2022/08/14 12:42:43;;;;;;;0.60;0.60;;;25.40;57.60;;;;;;5065106;28;20466;-47
2022/08/14 12:45:11;;;;;;;1.02;0.57;;;25.40;57.60;;;;;;5066369;28;20078;-38
2022/08/14 12:47:41;;;;;;;0.70;0.70;;;25.40;57.60;;;;;;5064854;28;20044;-38
2022/08/14 12:50:07;;;;;;;0.55;0.55;;;25.40;57.60;;;;;;5063676;28;20009;-39
2022/08/14 12:52:40;;;;;;;0.50;0.50;;;25.40;57.50;;;;;;5062500;28;20096;-38
2022/08/14 12:55:14;;;;;;;0.60;0.60;;;25.40;58.10;;;;;;5061197;28;20028;-38
2022/08/14 12:57:41;;;;;;;0.40;0.40;;;25.40;57.50;;;;;;5049802;28;20479;-39
2022/08/14 13:00:10;;;;;;;0.50;0.50;;;25.40;57.50;;;;;;5066200;28;20028;-45
2022/08/14 13:02:37;;;;;;;0.60;0.60;;;25.40;57.50;;;;;;5064205;28;20043;-38